Reeseville, Wisconsin
Current Conditions -  °F | °C
As of 12:55 PM on Friday 24 Oct 2014 (Local Time) from KRYV Reporting Station
Overcast Overcast  
Wind Chill: 52°   Ceiling: 500
Heat Index: 52°   Visibility: 10mi
Dew Point: 51°   Wind: 6mph
Humidity: 99%   Direction: 200°SSW
Pressure: 30.01"   Gusts: NA
Location:  43.3°N, 88.84°W
Report Text: KRYV 241755Z AUTO 20005KT 10SM OVC005 11/11 A3001 RMK AO2 T01090108 10111 20083
Loading
Personal Weather Stations






























Interactive Weather Map
Tropical Storm Tracking
New forecast layout! Learn more

10-Day Weather Forecast

Advertisements
Track Severe Weather on mobile